sensor_id;sensor_type;location;lat;lon;timestamp;P1;durP1;ratioP1;P2;durP2;ratioP2
79348;SDS011;68817;48.110;11.660;2023-04-30T00:02:09;5.95;;;3.95;;
79348;SDS011;68817;48.110;11.660;2023-04-30T00:04:35;5.78;;;3.60;;
79348;SDS011;68817;48.110;11.660;2023-04-30T00:07:01;6.30;;;3.65;;
79348;SDS011;68817;48.110;11.660;2023-04-30T00:09:26;4.97;;;3.70;;
79348;SDS011;68817;48.110;11.660;2023-04-30T00:11:51;5.97;;;3.60;;
79348;SDS011;68817;48.110;11.660;2023-04-30T00:14:17;6.00;;;3.70;;
79348;SDS011;68817;48.110;11.660;2023-04-30T00:16:42;5.57;;;4.07;;
79348;SDS011;68817;48.110;11.660;2023-04-30T00:19:08;8.73;;;4.35;;
79348;SDS011;68817;48.110;11.660;2023-04-30T00:21:33;5.88;;;3.80;;
79348;SDS011;68817;48.110;11.660;2023-04-30T00:23:59;7.30;;;4.57;;
79348;SDS011;68817;48.110;11.660;2023-04-30T00:26:24;5.97;;;3.63;;
79348;SDS011;68817;48.110;11.660;2023-04-30T00:28:50;5.45;;;3.58;;
79348;SDS011;68817;48.110;11.660;2023-04-30T00:31:16;5.55;;;3.70;;
79348;SDS011;68817;48.110;11.660;2023-04-30T00:33:41;5.97;;;3.72;;
79348;SDS011;68817;48.110;11.660;2023-04-30T00:36:06;5.95;;;3.38;;
79348;SDS011;68817;48.110;11.660;2023-04-30T00:38:32;5.10;;;3.42;;
79348;SDS011;68817;48.110;11.660;2023-04-30T00:40:57;5.55;;;3.67;;
79348;SDS011;68817;48.110;11.660;2023-04-30T00:43:23;4.85;;;3.63;;
79348;SDS011;68817;48.110;11.660;2023-04-30T00:45:48;5.35;;;3.58;;
79348;SDS011;68817;48.110;11.660;2023-04-30T00:48:14;6.47;;;3.78;;
79348;SDS011;68817;48.110;11.660;2023-04-30T00:50:40;6.38;;;3.65;;
79348;SDS011;68817;48.110;11.660;2023-04-30T00:53:05;5.65;;;3.67;;
79348;SDS011;68817;48.110;11.660;2023-04-30T00:55:31;5.65;;;3.60;;
79348;SDS011;68817;48.110;11.660;2023-04-30T00:57:57;6.15;;;3.70;;
79348;SDS011;68817;48.110;11.660;2023-04-30T01:00:22;6.32;;;3.72;;
79348;SDS011;68817;48.110;11.660;2023-04-30T01:02:49;6.45;;;4.18;;
79348;SDS011;68817;48.110;11.660;2023-04-30T01:05:14;6.03;;;3.70;;
79348;SDS011;68817;48.110;11.660;2023-04-30T01:07:40;6.35;;;4.03;;
79348;SDS011;68817;48.110;11.660;2023-04-30T01:10:11;6.90;;;3.92;;
79348;SDS011;68817;48.110;11.660;2023-04-30T01:12:43;6.07;;;3.80;;
79348;SDS011;68817;48.110;11.660;2023-04-30T01:18:15;6.70;;;4.18;;
79348;SDS011;68817;48.110;11.660;2023-04-30T01:20:44;5.75;;;4.53;;
79348;SDS011;68817;48.110;11.660;2023-04-30T01:23:27;7.20;;;3.65;;
79348;SDS011;68817;48.110;11.660;2023-04-30T01:26:21;7.03;;;3.92;;
79348;SDS011;68817;48.110;11.660;2023-04-30T01:28:52;6.82;;;3.83;;
79348;SDS011;68817;48.110;11.660;2023-04-30T01:31:18;6.75;;;4.25;;
79348;SDS011;68817;48.110;11.660;2023-04-30T01:33:44;6.22;;;3.45;;
79348;SDS011;68817;48.110;11.660;2023-04-30T01:47:44;6.43;;;4.20;;
79348;SDS011;68817;48.110;11.660;2023-04-30T01:50:19;6.72;;;4.18;;
79348;SDS011;68817;48.110;11.660;2023-04-30T01:52:53;6.15;;;4.53;;
79348;SDS011;68817;48.110;11.660;2023-04-30T01:55:27;5.78;;;4.13;;
79348;SDS011;68817;48.110;11.660;2023-04-30T01:58:00;6.10;;;4.00;;
79348;SDS011;68817;48.110;11.660;2023-04-30T02:00:27;7.80;;;4.03;;
79348;SDS011;68817;48.110;11.660;2023-04-30T02:02:54;7.88;;;4.20;;
79348;SDS011;68817;48.110;11.660;2023-04-30T02:05:20;9.48;;;4.50;;
79348;SDS011;68817;48.110;11.660;2023-04-30T02:07:47;5.45;;;4.25;;
79348;SDS011;68817;48.110;11.660;2023-04-30T02:10:13;6.50;;;4.32;;
79348;SDS011;68817;48.110;11.660;2023-04-30T02:12:40;5.80;;;3.97;;
79348;SDS011;68817;48.110;11.660;2023-04-30T02:15:05;7.60;;;4.40;;
79348;SDS011;68817;48.110;11.660;2023-04-30T02:17:31;7.90;;;4.93;;
79348;SDS011;68817;48.110;11.660;2023-04-30T02:19:57;6.63;;;4.05;;
79348;SDS011;68817;48.110;11.660;2023-04-30T02:22:23;7.65;;;4.07;;
79348;SDS011;68817;48.110;11.660;2023-04-30T02:24:49;5.75;;;4.13;;
79348;SDS011;68817;48.110;11.660;2023-04-30T02:27:15;8.88;;;4.53;;
79348;SDS011;68817;48.110;11.660;2023-04-30T02:29:40;9.88;;;5.35;;
79348;SDS011;68817;48.110;11.660;2023-04-30T02:32:06;7.47;;;4.50;;
79348;SDS011;68817;48.110;11.660;2023-04-30T02:34:31;7.50;;;5.40;;
79348;SDS011;68817;48.110;11.660;2023-04-30T02:36:57;8.18;;;5.03;;
79348;SDS011;68817;48.110;11.660;2023-04-30T02:39:22;10.25;;;4.88;;
79348;SDS011;68817;48.110;11.660;2023-04-30T02:41:48;7.97;;;4.75;;
79348;SDS011;68817;48.110;11.660;2023-04-30T02:44:14;7.72;;;5.18;;
79348;SDS011;68817;48.110;11.660;2023-04-30T02:46:39;7.15;;;4.55;;
79348;SDS011;68817;48.110;11.660;2023-04-30T02:49:04;9.48;;;5.90;;
79348;SDS011;68817;48.110;11.660;2023-04-30T02:51:30;9.52;;;5.95;;
79348;SDS011;68817;48.110;11.660;2023-04-30T02:53:56;7.60;;;5.60;;
79348;SDS011;68817;48.110;11.660;2023-04-30T02:56:22;8.82;;;5.43;;
79348;SDS011;68817;48.110;11.660;2023-04-30T02:58:47;8.05;;;4.95;;
79348;SDS011;68817;48.110;11.660;2023-04-30T03:01:13;6.78;;;4.43;;
79348;SDS011;68817;48.110;11.660;2023-04-30T03:03:39;6.85;;;4.55;;
79348;SDS011;68817;48.110;11.660;2023-04-30T03:06:05;7.35;;;4.80;;
79348;SDS011;68817;48.110;11.660;2023-04-30T03:08:30;8.27;;;5.38;;
79348;SDS011;68817;48.110;11.660;2023-04-30T03:10:56;8.82;;;5.13;;
79348;SDS011;68817;48.110;11.660;2023-04-30T03:13:21;10.93;;;5.55;;
79348;SDS011;68817;48.110;11.660;2023-04-30T03:15:55;7.90;;;4.85;;
79348;SDS011;68817;48.110;11.660;2023-04-30T03:18:21;7.90;;;4.93;;
79348;SDS011;68817;48.110;11.660;2023-04-30T03:20:47;7.63;;;4.55;;
79348;SDS011;68817;48.110;11.660;2023-04-30T03:23:12;8.07;;;4.75;;
79348;SDS011;68817;48.110;11.660;2023-04-30T03:25:38;7.25;;;4.53;;
79348;SDS011;68817;48.110;11.660;2023-04-30T03:28:03;6.07;;;4.40;;
79348;SDS011;68817;48.110;11.660;2023-04-30T03:30:29;8.80;;;5.10;;
79348;SDS011;68817;48.110;11.660;2023-04-30T03:32:54;7.03;;;4.38;;
79348;SDS011;68817;48.110;11.660;2023-04-30T03:35:20;8.10;;;4.60;;
79348;SDS011;68817;48.110;11.660;2023-04-30T03:37:45;8.35;;;5.15;;
79348;SDS011;68817;48.110;11.660;2023-04-30T03:40:11;9.82;;;4.72;;
79348;SDS011;68817;48.110;11.660;2023-04-30T03:42:37;10.45;;;5.63;;
79348;SDS011;68817;48.110;11.660;2023-04-30T03:45:02;7.13;;;4.68;;
79348;SDS011;68817;48.110;11.660;2023-04-30T03:47:28;7.85;;;5.38;;
79348;SDS011;68817;48.110;11.660;2023-04-30T03:49:53;7.68;;;4.93;;
79348;SDS011;68817;48.110;11.660;2023-04-30T03:52:20;8.05;;;4.90;;
79348;SDS011;68817;48.110;11.660;2023-04-30T03:54:47;7.53;;;4.45;;
79348;SDS011;68817;48.110;11.660;2023-04-30T03:57:13;8.43;;;4.85;;
79348;SDS011;68817;48.110;11.660;2023-04-30T03:59:39;7.80;;;4.93;;
79348;SDS011;68817;48.110;11.660;2023-04-30T04:02:05;8.73;;;5.03;;
79348;SDS011;68817;48.110;11.660;2023-04-30T04:04:31;8.75;;;4.75;;
79348;SDS011;68817;48.110;11.660;2023-04-30T04:06:58;7.68;;;5.10;;
79348;SDS011;68817;48.110;11.660;2023-04-30T04:09:23;8.43;;;4.90;;
79348;SDS011;68817;48.110;11.660;2023-04-30T04:11:49;8.70;;;5.10;;
79348;SDS011;68817;48.110;11.660;2023-04-30T04:14:14;7.47;;;4.28;;
79348;SDS011;68817;48.110;11.660;2023-04-30T04:16:41;7.85;;;5.22;;
79348;SDS011;68817;48.110;11.660;2023-04-30T04:19:06;7.75;;;4.88;;
79348;SDS011;68817;48.110;11.660;2023-04-30T04:21:32;8.30;;;5.13;;
79348;SDS011;68817;48.110;11.660;2023-04-30T04:24:00;7.72;;;4.90;;
79348;SDS011;68817;48.110;11.660;2023-04-30T04:26:32;11.95;;;6.18;;
79348;SDS011;68817;48.110;11.660;2023-04-30T04:29:01;8.75;;;4.85;;
79348;SDS011;68817;48.110;11.660;2023-04-30T04:31:28;8.00;;;5.18;;
79348;SDS011;68817;48.110;11.660;2023-04-30T04:33:56;7.57;;;5.32;;
79348;SDS011;68817;48.110;11.660;2023-04-30T04:36:26;8.88;;;5.68;;
79348;SDS011;68817;48.110;11.660;2023-04-30T04:38:52;8.32;;;5.35;;
79348;SDS011;68817;48.110;11.660;2023-04-30T04:41:18;9.43;;;5.15;;
79348;SDS011;68817;48.110;11.660;2023-04-30T04:43:44;8.43;;;5.38;;
79348;SDS011;68817;48.110;11.660;2023-04-30T04:46:11;7.70;;;5.05;;
79348;SDS011;68817;48.110;11.660;2023-04-30T04:48:40;10.20;;;5.60;;
79348;SDS011;68817;48.110;11.660;2023-04-30T04:51:06;9.32;;;5.65;;
79348;SDS011;68817;48.110;11.660;2023-04-30T04:53:31;9.25;;;5.25;;
79348;SDS011;68817;48.110;11.660;2023-04-30T04:55:57;9.55;;;5.90;;
79348;SDS011;68817;48.110;11.660;2023-04-30T04:58:22;8.35;;;5.50;;
79348;SDS011;68817;48.110;11.660;2023-04-30T05:00:47;8.40;;;5.70;;
79348;SDS011;68817;48.110;11.660;2023-04-30T05:03:13;8.25;;;5.43;;
79348;SDS011;68817;48.110;11.660;2023-04-30T05:05:38;8.40;;;5.32;;
79348;SDS011;68817;48.110;11.660;2023-04-30T05:08:04;7.47;;;5.15;;
79348;SDS011;68817;48.110;11.660;2023-04-30T05:10:29;8.77;;;5.65;;
79348;SDS011;68817;48.110;11.660;2023-04-30T05:12:55;8.00;;;5.28;;
79348;SDS011;68817;48.110;11.660;2023-04-30T05:15:21;7.95;;;5.70;;
79348;SDS011;68817;48.110;11.660;2023-04-30T05:17:46;8.45;;;5.20;;
79348;SDS011;68817;48.110;11.660;2023-04-30T05:20:12;7.68;;;5.32;;
79348;SDS011;68817;48.110;11.660;2023-04-30T05:22:37;9.00;;;6.70;;
79348;SDS011;68817;48.110;11.660;2023-04-30T05:25:03;9.57;;;5.38;;
79348;SDS011;68817;48.110;11.660;2023-04-30T05:27:28;8.32;;;5.45;;
79348;SDS011;68817;48.110;11.660;2023-04-30T05:29:54;7.75;;;5.15;;
79348;SDS011;68817;48.110;11.660;2023-04-30T05:32:21;8.23;;;5.35;;
79348;SDS011;68817;48.110;11.660;2023-04-30T05:34:46;7.75;;;5.07;;
79348;SDS011;68817;48.110;11.660;2023-04-30T05:37:12;8.43;;;5.35;;
79348;SDS011;68817;48.110;11.660;2023-04-30T05:39:38;8.50;;;5.38;;
79348;SDS011;68817;48.110;11.660;2023-04-30T05:42:03;7.43;;;5.50;;
79348;SDS011;68817;48.110;11.660;2023-04-30T05:44:29;8.27;;;5.78;;
79348;SDS011;68817;48.110;11.660;2023-04-30T05:46:54;9.35;;;5.50;;
79348;SDS011;68817;48.110;11.660;2023-04-30T05:49:20;8.00;;;6.25;;
79348;SDS011;68817;48.110;11.660;2023-04-30T05:51:45;8.43;;;5.22;;
79348;SDS011;68817;48.110;11.660;2023-04-30T05:54:11;8.98;;;5.68;;
79348;SDS011;68817;48.110;11.660;2023-04-30T05:56:36;9.70;;;6.53;;
79348;SDS011;68817;48.110;11.660;2023-04-30T05:59:01;7.38;;;5.55;;
79348;SDS011;68817;48.110;11.660;2023-04-30T06:01:27;7.05;;;4.90;;
79348;SDS011;68817;48.110;11.660;2023-04-30T06:03:53;7.32;;;4.63;;
79348;SDS011;68817;48.110;11.660;2023-04-30T06:06:18;7.32;;;5.15;;
79348;SDS011;68817;48.110;11.660;2023-04-30T06:08:44;8.10;;;5.75;;
79348;SDS011;68817;48.110;11.660;2023-04-30T06:11:10;6.97;;;5.05;;
79348;SDS011;68817;48.110;11.660;2023-04-30T06:13:36;8.40;;;5.80;;
79348;SDS011;68817;48.110;11.660;2023-04-30T06:16:01;7.78;;;4.82;;
79348;SDS011;68817;48.110;11.660;2023-04-30T06:18:27;7.25;;;5.07;;
79348;SDS011;68817;48.110;11.660;2023-04-30T06:20:52;7.90;;;4.53;;
79348;SDS011;68817;48.110;11.660;2023-04-30T06:23:17;6.85;;;4.85;;
79348;SDS011;68817;48.110;11.660;2023-04-30T06:25:43;7.30;;;4.63;;
79348;SDS011;68817;48.110;11.660;2023-04-30T06:28:08;7.15;;;5.15;;
79348;SDS011;68817;48.110;11.660;2023-04-30T06:30:36;7.50;;;4.30;;
79348;SDS011;68817;48.110;11.660;2023-04-30T06:33:01;5.65;;;4.57;;
79348;SDS011;68817;48.110;11.660;2023-04-30T06:35:26;6.35;;;4.25;;
79348;SDS011;68817;48.110;11.660;2023-04-30T06:37:52;6.70;;;4.43;;
79348;SDS011;68817;48.110;11.660;2023-04-30T06:40:17;6.38;;;4.95;;
79348;SDS011;68817;48.110;11.660;2023-04-30T06:42:44;5.88;;;4.50;;
79348;SDS011;68817;48.110;11.660;2023-04-30T06:45:10;5.40;;;3.97;;
79348;SDS011;68817;48.110;11.660;2023-04-30T06:47:36;6.53;;;4.60;;
79348;SDS011;68817;48.110;11.660;2023-04-30T06:50:02;6.63;;;4.78;;
79348;SDS011;68817;48.110;11.660;2023-04-30T06:52:28;6.82;;;4.07;;
79348;SDS011;68817;48.110;11.660;2023-04-30T06:54:54;7.15;;;4.72;;
79348;SDS011;68817;48.110;11.660;2023-04-30T06:57:19;5.82;;;4.13;;
79348;SDS011;68817;48.110;11.660;2023-04-30T06:59:45;5.45;;;3.95;;
79348;SDS011;68817;48.110;11.660;2023-04-30T07:02:11;6.15;;;4.18;;
79348;SDS011;68817;48.110;11.660;2023-04-30T07:04:37;5.32;;;4.30;;
79348;SDS011;68817;48.110;11.660;2023-04-30T07:07:02;5.10;;;3.92;;
79348;SDS011;68817;48.110;11.660;2023-04-30T07:09:28;5.50;;;4.53;;
79348;SDS011;68817;48.110;11.660;2023-04-30T07:11:54;5.55;;;4.22;;
79348;SDS011;68817;48.110;11.660;2023-04-30T07:14:19;4.93;;;3.72;;
79348;SDS011;68817;48.110;11.660;2023-04-30T07:16:45;5.38;;;4.47;;
79348;SDS011;68817;48.110;11.660;2023-04-30T07:19:10;5.40;;;4.00;;
79348;SDS011;68817;48.110;11.660;2023-04-30T07:21:36;5.00;;;4.38;;
79348;SDS011;68817;48.110;11.660;2023-04-30T07:24:01;4.85;;;4.00;;
79348;SDS011;68817;48.110;11.660;2023-04-30T07:26:27;3.90;;;3.35;;
79348;SDS011;68817;48.110;11.660;2023-04-30T07:28:52;4.85;;;3.95;;
79348;SDS011;68817;48.110;11.660;2023-04-30T07:31:18;4.95;;;4.45;;
79348;SDS011;68817;48.110;11.660;2023-04-30T07:33:44;5.25;;;4.28;;
79348;SDS011;68817;48.110;11.660;2023-04-30T07:36:09;4.38;;;3.90;;
79348;SDS011;68817;48.110;11.660;2023-04-30T07:38:35;4.53;;;3.92;;
79348;SDS011;68817;48.110;11.660;2023-04-30T07:41:00;4.30;;;3.65;;
79348;SDS011;68817;48.110;11.660;2023-04-30T07:43:27;5.00;;;4.05;;
79348;SDS011;68817;48.110;11.660;2023-04-30T07:45:53;4.93;;;4.38;;
79348;SDS011;68817;48.110;11.660;2023-04-30T07:48:19;5.00;;;4.50;;
79348;SDS011;68817;48.110;11.660;2023-04-30T07:50:48;4.60;;;4.15;;
79348;SDS011;68817;48.110;11.660;2023-04-30T07:53:13;6.00;;;4.45;;
79348;SDS011;68817;48.110;11.660;2023-04-30T07:55:39;4.68;;;3.90;;
79348;SDS011;68817;48.110;11.660;2023-04-30T07:58:04;5.22;;;4.18;;
79348;SDS011;68817;48.110;11.660;2023-04-30T08:00:30;4.30;;;3.88;;
79348;SDS011;68817;48.110;11.660;2023-04-30T08:02:56;4.35;;;3.95;;
79348;SDS011;68817;48.110;11.660;2023-04-30T08:05:22;5.05;;;3.80;;
79348;SDS011;68817;48.110;11.660;2023-04-30T08:07:47;4.90;;;4.32;;
79348;SDS011;68817;48.110;11.660;2023-04-30T08:10:13;4.68;;;3.90;;
79348;SDS011;68817;48.110;11.660;2023-04-30T08:12:38;4.13;;;3.55;;
79348;SDS011;68817;48.110;11.660;2023-04-30T08:15:04;3.88;;;3.40;;
79348;SDS011;68817;48.110;11.660;2023-04-30T08:17:31;4.07;;;3.58;;
79348;SDS011;68817;48.110;11.660;2023-04-30T08:19:57;4.07;;;3.20;;
79348;SDS011;68817;48.110;11.660;2023-04-30T08:22:22;4.80;;;3.30;;
79348;SDS011;68817;48.110;11.660;2023-04-30T08:24:48;4.85;;;3.70;;
79348;SDS011;68817;48.110;11.660;2023-04-30T08:27:14;4.10;;;3.50;;
79348;SDS011;68817;48.110;11.660;2023-04-30T08:29:40;4.55;;;4.00;;
79348;SDS011;68817;48.110;11.660;2023-04-30T08:32:05;5.18;;;4.40;;
79348;SDS011;68817;48.110;11.660;2023-04-30T08:34:30;4.70;;;4.00;;
79348;SDS011;68817;48.110;11.660;2023-04-30T08:36:56;4.68;;;4.18;;
79348;SDS011;68817;48.110;11.660;2023-04-30T08:39:21;4.15;;;3.65;;
79348;SDS011;68817;48.110;11.660;2023-04-30T08:41:49;3.92;;;3.47;;
79348;SDS011;68817;48.110;11.660;2023-04-30T08:44:20;4.45;;;3.85;;
79348;SDS011;68817;48.110;11.660;2023-04-30T08:46:48;4.57;;;3.22;;
79348;SDS011;68817;48.110;11.660;2023-04-30T08:49:22;4.13;;;3.38;;
79348;SDS011;68817;48.110;11.660;2023-04-30T08:51:48;4.53;;;3.40;;
79348;SDS011;68817;48.110;11.660;2023-04-30T08:54:14;3.72;;;3.13;;
79348;SDS011;68817;48.110;11.660;2023-04-30T08:56:40;4.93;;;3.50;;
79348;SDS011;68817;48.110;11.660;2023-04-30T08:59:05;5.28;;;3.42;;
79348;SDS011;68817;48.110;11.660;2023-04-30T09:01:32;4.75;;;3.60;;
79348;SDS011;68817;48.110;11.660;2023-04-30T09:03:58;3.85;;;3.45;;
79348;SDS011;68817;48.110;11.660;2023-04-30T09:06:23;4.45;;;3.47;;
79348;SDS011;68817;48.110;11.660;2023-04-30T09:08:49;5.60;;;3.53;;
79348;SDS011;68817;48.110;11.660;2023-04-30T09:13:47;4.03;;;3.53;;
79348;SDS011;68817;48.110;11.660;2023-04-30T09:16:13;4.70;;;3.85;;
79348;SDS011;68817;48.110;11.660;2023-04-30T09:18:39;4.55;;;3.90;;
79348;SDS011;68817;48.110;11.660;2023-04-30T09:21:05;4.97;;;3.65;;
79348;SDS011;68817;48.110;11.660;2023-04-30T09:23:33;4.80;;;3.67;;
79348;SDS011;68817;48.110;11.660;2023-04-30T09:25:58;5.35;;;4.40;;
79348;SDS011;68817;48.110;11.660;2023-04-30T09:28:25;5.35;;;4.00;;
79348;SDS011;68817;48.110;11.660;2023-04-30T09:30:52;4.50;;;3.83;;
79348;SDS011;68817;48.110;11.660;2023-04-30T09:33:20;4.75;;;4.00;;
79348;SDS011;68817;48.110;11.660;2023-04-30T09:35:46;4.88;;;3.67;;
79348;SDS011;68817;48.110;11.660;2023-04-30T09:38:28;4.55;;;4.05;;
79348;SDS011;68817;48.110;11.660;2023-04-30T09:40:56;4.20;;;3.67;;
79348;SDS011;68817;48.110;11.660;2023-04-30T09:43:22;4.70;;;3.90;;
79348;SDS011;68817;48.110;11.660;2023-04-30T09:45:48;5.60;;;4.47;;
79348;SDS011;68817;48.110;11.660;2023-04-30T09:48:22;4.63;;;3.67;;
79348;SDS011;68817;48.110;11.660;2023-04-30T09:50:51;5.50;;;4.00;;
79348;SDS011;68817;48.110;11.660;2023-04-30T09:53:17;4.32;;;3.60;;
79348;SDS011;68817;48.110;11.660;2023-04-30T09:55:44;3.80;;;3.40;;
79348;SDS011;68817;48.110;11.660;2023-04-30T09:58:11;3.70;;;3.33;;
79348;SDS011;68817;48.110;11.660;2023-04-30T10:00:37;5.05;;;3.97;;
79348;SDS011;68817;48.110;11.660;2023-04-30T10:03:10;4.40;;;3.88;;
79348;SDS011;68817;48.110;11.660;2023-04-30T10:05:39;4.20;;;3.70;;
79348;SDS011;68817;48.110;11.660;2023-04-30T10:08:07;4.82;;;4.32;;
79348;SDS011;68817;48.110;11.660;2023-04-30T10:10:35;4.25;;;3.75;;
79348;SDS011;68817;48.110;11.660;2023-04-30T10:13:03;5.55;;;4.40;;
79348;SDS011;68817;48.110;11.660;2023-04-30T10:15:34;5.03;;;4.38;;
79348;SDS011;68817;48.110;11.660;2023-04-30T10:18:04;4.60;;;4.15;;
79348;SDS011;68817;48.110;11.660;2023-04-30T10:20:30;4.75;;;4.25;;
79348;SDS011;68817;48.110;11.660;2023-04-30T10:22:59;5.13;;;4.47;;
79348;SDS011;68817;48.110;11.660;2023-04-30T10:25:25;5.18;;;4.05;;
79348;SDS011;68817;48.110;11.660;2023-04-30T10:27:52;4.50;;;4.10;;
79348;SDS011;68817;48.110;11.660;2023-04-30T10:30:17;4.47;;;3.72;;
79348;SDS011;68817;48.110;11.660;2023-04-30T10:32:46;5.53;;;4.80;;
79348;SDS011;68817;48.110;11.660;2023-04-30T10:35:37;4.35;;;3.95;;
79348;SDS011;68817;48.110;11.660;2023-04-30T10:38:14;4.55;;;4.15;;
79348;SDS011;68817;48.110;11.660;2023-04-30T10:40:44;4.88;;;3.67;;
79348;SDS011;68817;48.110;11.660;2023-04-30T10:43:11;4.28;;;3.17;;
79348;SDS011;68817;48.110;11.660;2023-04-30T10:45:38;4.35;;;3.05;;
79348;SDS011;68817;48.110;11.660;2023-04-30T10:48:07;3.83;;;3.00;;
79348;SDS011;68817;48.110;11.660;2023-04-30T10:50:38;3.20;;;2.50;;
79348;SDS011;68817;48.110;11.660;2023-04-30T10:53:10;4.15;;;3.08;;
79348;SDS011;68817;48.110;11.660;2023-04-30T10:55:44;3.45;;;3.08;;
79348;SDS011;68817;48.110;11.660;2023-04-30T10:58:29;3.70;;;3.30;;
79348;SDS011;68817;48.110;11.660;2023-04-30T11:00:59;4.38;;;3.00;;
79348;SDS011;68817;48.110;11.660;2023-04-30T11:03:26;4.63;;;3.47;;
79348;SDS011;68817;48.110;11.660;2023-04-30T11:05:52;4.90;;;2.78;;
79348;SDS011;68817;48.110;11.660;2023-04-30T11:08:18;4.40;;;2.75;;
79348;SDS011;68817;48.110;11.660;2023-04-30T11:10:57;3.88;;;3.10;;
79348;SDS011;68817;48.110;11.660;2023-04-30T11:13:25;3.90;;;3.15;;
79348;SDS011;68817;48.110;11.660;2023-04-30T11:15:51;4.55;;;3.80;;
79348;SDS011;68817;48.110;11.660;2023-04-30T11:18:17;3.63;;;3.33;;
79348;SDS011;68817;48.110;11.660;2023-04-30T11:20:48;7.25;;;3.90;;
79348;SDS011;68817;48.110;11.660;2023-04-30T11:23:15;3.50;;;3.20;;
79348;SDS011;68817;48.110;11.660;2023-04-30T11:25:42;14.20;;;9.70;;
79348;SDS011;68817;48.110;11.660;2023-04-30T11:28:19;3.90;;;2.70;;
79348;SDS011;68817;48.110;11.660;2023-04-30T11:33:22;3.83;;;3.03;;
79348;SDS011;68817;48.110;11.660;2023-04-30T11:35:52;3.85;;;2.95;;
79348;SDS011;68817;48.110;11.660;2023-04-30T11:38:21;3.35;;;2.67;;
79348;SDS011;68817;48.110;11.660;2023-04-30T11:40:50;5.35;;;2.85;;
79348;SDS011;68817;48.110;11.660;2023-04-30T11:43:23;3.05;;;2.75;;
79348;SDS011;68817;48.110;11.660;2023-04-30T11:48:35;3.17;;;2.72;;
79348;SDS011;68817;48.110;11.660;2023-04-30T11:51:03;13.10;;;9.10;;
79348;SDS011;68817;48.110;11.660;2023-04-30T11:53:49;3.38;;;2.75;;
79348;SDS011;68817;48.110;11.660;2023-04-30T11:56:22;3.10;;;2.58;;
79348;SDS011;68817;48.110;11.660;2023-04-30T11:58:50;3.35;;;2.45;;
79348;SDS011;68817;48.110;11.660;2023-04-30T12:01:16;3.03;;;2.42;;
79348;SDS011;68817;48.110;11.660;2023-04-30T12:03:43;2.88;;;2.20;;
79348;SDS011;68817;48.110;11.660;2023-04-30T12:06:10;3.17;;;2.70;;
79348;SDS011;68817;48.110;11.660;2023-04-30T12:08:45;3.00;;;2.58;;
79348;SDS011;68817;48.110;11.660;2023-04-30T12:13:52;3.50;;;2.40;;
79348;SDS011;68817;48.110;11.660;2023-04-30T12:16:26;3.97;;;2.60;;
79348;SDS011;68817;48.110;11.660;2023-04-30T12:18:52;4.45;;;2.55;;
79348;SDS011;68817;48.110;11.660;2023-04-30T12:21:18;3.38;;;2.50;;
79348;SDS011;68817;48.110;11.660;2023-04-30T12:23:44;6.63;;;2.85;;
79348;SDS011;68817;48.110;11.660;2023-04-30T12:26:10;2.75;;;2.45;;
79348;SDS011;68817;48.110;11.660;2023-04-30T12:28:35;4.22;;;3.00;;
79348;SDS011;68817;48.110;11.660;2023-04-30T12:31:01;3.65;;;2.53;;
79348;SDS011;68817;48.110;11.660;2023-04-30T12:33:29;3.72;;;2.50;;
79348;SDS011;68817;48.110;11.660;2023-04-30T12:35:55;3.33;;;2.47;;
79348;SDS011;68817;48.110;11.660;2023-04-30T12:38:21;4.35;;;2.40;;
79348;SDS011;68817;48.110;11.660;2023-04-30T12:40:47;4.78;;;2.80;;
79348;SDS011;68817;48.110;11.660;2023-04-30T12:43:14;3.13;;;2.47;;
79348;SDS011;68817;48.110;11.660;2023-04-30T12:48:16;4.13;;;2.40;;
79348;SDS011;68817;48.110;11.660;2023-04-30T12:50:46;2.70;;;2.30;;
79348;SDS011;68817;48.110;11.660;2023-04-30T12:53:12;2.42;;;2.22;;
79348;SDS011;68817;48.110;11.660;2023-04-30T12:55:37;2.80;;;2.25;;
79348;SDS011;68817;48.110;11.660;2023-04-30T12:58:07;4.40;;;2.35;;
79348;SDS011;68817;48.110;11.660;2023-04-30T13:00:46;3.35;;;2.50;;
79348;SDS011;68817;48.110;11.660;2023-04-30T13:03:13;2.85;;;2.55;;
79348;SDS011;68817;48.110;11.660;2023-04-30T13:05:40;3.63;;;2.30;;
79348;SDS011;68817;48.110;11.660;2023-04-30T13:08:06;3.05;;;2.63;;
79348;SDS011;68817;48.110;11.660;2023-04-30T13:10:32;2.72;;;2.00;;
79348;SDS011;68817;48.110;11.660;2023-04-30T13:12:57;2.67;;;2.20;;
79348;SDS011;68817;48.110;11.660;2023-04-30T13:15:23;2.97;;;2.28;;
79348;SDS011;68817;48.110;11.660;2023-04-30T13:17:49;2.70;;;2.40;;
79348;SDS011;68817;48.110;11.660;2023-04-30T13:20:14;3.15;;;2.05;;
79348;SDS011;68817;48.110;11.660;2023-04-30T13:22:40;2.65;;;2.30;;
79348;SDS011;68817;48.110;11.660;2023-04-30T13:25:05;2.58;;;2.30;;
79348;SDS011;68817;48.110;11.660;2023-04-30T13:27:31;3.90;;;2.67;;
79348;SDS011;68817;48.110;11.660;2023-04-30T13:29:57;3.33;;;2.25;;
79348;SDS011;68817;48.110;11.660;2023-04-30T13:32:22;4.63;;;2.30;;
79348;SDS011;68817;48.110;11.660;2023-04-30T13:34:47;2.63;;;2.15;;
79348;SDS011;68817;48.110;11.660;2023-04-30T13:37:13;4.15;;;2.50;;
79348;SDS011;68817;48.110;11.660;2023-04-30T13:39:38;2.58;;;2.30;;
79348;SDS011;68817;48.110;11.660;2023-04-30T13:42:04;3.40;;;2.20;;
79348;SDS011;68817;48.110;11.660;2023-04-30T13:44:30;2.67;;;1.83;;
79348;SDS011;68817;48.110;11.660;2023-04-30T13:46:57;2.65;;;2.05;;
79348;SDS011;68817;48.110;11.660;2023-04-30T13:49:23;3.15;;;2.40;;
79348;SDS011;68817;48.110;11.660;2023-04-30T13:51:48;2.40;;;2.13;;
79348;SDS011;68817;48.110;11.660;2023-04-30T13:54:13;2.33;;;1.98;;
79348;SDS011;68817;48.110;11.660;2023-04-30T13:56:39;2.55;;;2.00;;
79348;SDS011;68817;48.110;11.660;2023-04-30T13:59:04;2.40;;;2.20;;
79348;SDS011;68817;48.110;11.660;2023-04-30T14:01:30;2.42;;;2.10;;
79348;SDS011;68817;48.110;11.660;2023-04-30T14:03:57;2.72;;;2.13;;
79348;SDS011;68817;48.110;11.660;2023-04-30T14:06:22;2.72;;;2.15;;
79348;SDS011;68817;48.110;11.660;2023-04-30T14:08:48;3.80;;;2.80;;
79348;SDS011;68817;48.110;11.660;2023-04-30T14:11:13;3.72;;;2.47;;
79348;SDS011;68817;48.110;11.660;2023-04-30T14:13:39;4.75;;;3.28;;
79348;SDS011;68817;48.110;11.660;2023-04-30T14:16:05;4.47;;;2.95;;
79348;SDS011;68817;48.110;11.660;2023-04-30T14:18:31;2.67;;;2.28;;
79348;SDS011;68817;48.110;11.660;2023-04-30T14:20:56;2.65;;;2.25;;
79348;SDS011;68817;48.110;11.660;2023-04-30T14:23:21;3.00;;;2.10;;
79348;SDS011;68817;48.110;11.660;2023-04-30T14:25:47;3.60;;;1.77;;
79348;SDS011;68817;48.110;11.660;2023-04-30T14:28:12;2.42;;;1.80;;
79348;SDS011;68817;48.110;11.660;2023-04-30T14:30:38;3.25;;;2.13;;
79348;SDS011;68817;48.110;11.660;2023-04-30T14:33:03;3.03;;;2.50;;
79348;SDS011;68817;48.110;11.660;2023-04-30T14:35:28;2.42;;;1.90;;
79348;SDS011;68817;48.110;11.660;2023-04-30T14:37:54;3.70;;;2.15;;
79348;SDS011;68817;48.110;11.660;2023-04-30T14:40:19;2.55;;;2.10;;
79348;SDS011;68817;48.110;11.660;2023-04-30T14:42:45;4.18;;;2.08;;
79348;SDS011;68817;48.110;11.660;2023-04-30T14:45:10;3.20;;;2.20;;
79348;SDS011;68817;48.110;11.660;2023-04-30T14:47:35;3.35;;;2.20;;
79348;SDS011;68817;48.110;11.660;2023-04-30T14:50:01;2.50;;;2.00;;
79348;SDS011;68817;48.110;11.660;2023-04-30T14:52:26;2.50;;;2.05;;
79348;SDS011;68817;48.110;11.660;2023-04-30T14:54:52;3.50;;;2.38;;
79348;SDS011;68817;48.110;11.660;2023-04-30T14:57:17;2.60;;;2.28;;
79348;SDS011;68817;48.110;11.660;2023-04-30T14:59:43;2.78;;;2.33;;